Сыктывкар

Карта отелей и гостиниц, располагающихся рядом с аэропортом Сыктывкар :

Сыктывкар Республика Коми 61° 38' 49.1388" N, 50° 50' 42.3204" E
Код аэродрома ИКАО
UUYY
Код аэродрома RU
УУЫЫ
Координаты
N61.64698° E050.84509°
Превышение над уровнем моря
103
Основная полоса
36/18
Курс магнитный
004,3/184,3
Длина основной ВПП
2510
Ширина основной ВПП
45
Покрытие основной ВПП
Твёрдое (асфальтобетон)
Освещение ВПП
Постоянное
Тип: 
Аэродром
Класс аэродрома: 
Международный
Принадлежность: 
ГА
Статус: 
Действующий
Сайт: 
http://komiaviatrans.ru/airport/index.php?id=1
Страна: 
Россия
Регион: 
Республика Коми
Дополнительная информация: 
Оператор: ОАО «Комиавиатранс». Нкр.=(500)м.
Погода: 

Авиационная погода в Сыктывкаре

Регион: 
Погода METAR: 
UUYY 221800Z 00000MPS 9000 NSC M17/M19 Q1025 R18/420248 NOSIG RMK QFE760/1014
Время наблюдения
2022-01-22T18:00:00Z
Температура C
-17.0
Точка росы
-19.0
Направление ветра
0
Скорость ветра (узлы)
0
Метео видимость
5.59
Облачность
CLR
Нижняя граница облачности (футы)
Явления погоды
Условия полета
VFR
Аэропорт подробнее: 
CLR — нет облаков ниже 3000 м

Найти трансфер

С помощью этой формы Вы можете найти трансфер из аэропорта Сыктывкар в город, аэропорт или вокзал:

Погода в аэропортах:

Авиационная погода в Брянске

Регион: 
Погода METAR: 
UUBP 221800Z AUTO 24002MPS 9999 -SN M09/M10 Q1009 RMK QFE739/0986
Время наблюдения
2022-01-22T18:00:00Z
Температура C
-9.0
Точка росы
-10.0
Направление ветра
240
Скорость ветра (узлы)
4
Метео видимость
6.21
Облачность
Нижняя граница облачности (футы)
Явления погоды
-SN
Условия полета
Аэропорт подробнее: 
-SN – слабый снег;

Авиационная погода в Берлевоге

Регион: 
Погода METAR: 
ENBV 221150Z 23036G47KT 9999 BLSN SCT040 BKN053 M06/M09 Q1002
Время наблюдения
2022-01-22T11:50:00Z
Температура C
-6.0
Точка росы
-9.0
Направление ветра
230
Скорость ветра (узлы)
36
Метео видимость
6.21
Облачность
SCT
BKN
Нижняя граница облачности (футы)
4000
5300
Явления погоды
BLSN
Условия полета
VFR
SCT – разбросанная отдельная облачность; BKN – значительная (рассеянная, разорванная) облачность;
BLSN – метель низовая или общая;

Авиационная погода в Кривом Роге

Регион: 
Погода METAR: 
UKDR 141000Z 26009MPS 9999 -RA OVC008 02/01 Q1004
Время наблюдения
2022-01-14T10:00:00Z
Температура C
2.0
Точка росы
1.0
Направление ветра
260
Скорость ветра (узлы)
17
Метео видимость
6.21
Облачность
OVC
Нижняя граница облачности (футы)
800
Явления погоды
-RA
Условия полета
IFR
Аэропорт подробнее: 
OVC – сплошная облачность;
-RA - слабый дождь;

Авиационная погода в Ульяновске

Регион: 
Погода METAR: 
UWLW 221800Z 14006MPS 1600 R20/2000 SN BLSN OVC019 M05/M06 Q1020 R20/491540 TEMPO 15010MPS 0500 +SN BLSN VV003 RMK QFE760
Время наблюдения
2022-01-22T18:00:00Z
Температура C
-5.0
Точка росы
-6.0
Направление ветра
140
Скорость ветра (узлы)
12
Метео видимость
0.99
Облачность
OVC
Нижняя граница облачности (футы)
1900
Явления погоды
BLSN SN
Условия полета
LIFR
Аэропорт подробнее: 
OVC – сплошная облачность;
BLSN – метель низовая или общая;